createdAt,value
2023-03-04T00:00:46.539Z,13.50
2023-03-04T00:03:15.854Z,12.40
2023-03-04T00:05:45.059Z,12.80
2023-03-04T00:08:13.374Z,12.50
2023-03-04T00:10:41.383Z,13.10
2023-03-04T00:13:10.973Z,12.30
2023-03-04T00:15:39.048Z,12.90
2023-03-04T00:18:09.525Z,12.90
2023-03-04T00:20:40.149Z,15.00
2023-03-04T00:23:08.431Z,13.40
2023-03-04T00:25:38.067Z,13.50
2023-03-04T00:28:06.850Z,13.00
2023-03-04T00:30:35.188Z,13.10
2023-03-04T00:33:04.309Z,13.90
2023-03-04T00:35:32.358Z,13.60
2023-03-04T00:38:00.580Z,13.00
2023-03-04T00:40:28.937Z,13.10
2023-03-04T00:42:57.662Z,13.10
2023-03-04T00:45:26.870Z,12.80
2023-03-04T00:47:55.243Z,13.10
2023-03-04T00:50:23.586Z,13.40
2023-03-04T00:52:51.842Z,12.60
2023-03-04T00:55:20.038Z,13.90
2023-03-04T00:57:48.711Z,12.80
2023-03-04T01:00:19.090Z,12.70
2023-03-04T01:02:47.884Z,12.60
2023-03-04T01:05:17.077Z,13.20
2023-03-04T01:07:45.391Z,12.70
2023-03-04T01:10:16.429Z,12.70
2023-03-04T01:12:46.779Z,11.90
2023-03-04T01:15:15.369Z,12.40
2023-03-04T01:17:44.542Z,12.10
2023-03-04T01:20:13.430Z,12.10
2023-03-04T01:22:42.289Z,11.30
2023-03-04T01:25:10.451Z,12.20
2023-03-04T01:27:39.460Z,11.50
2023-03-04T01:30:08.178Z,11.70
2023-03-04T01:32:37.425Z,10.80
2023-03-04T01:35:05.917Z,11.80
2023-03-04T01:37:34.880Z,13.20
2023-03-04T01:40:03.056Z,14.10
2023-03-04T01:42:33.590Z,13.70
2023-03-04T01:45:02.155Z,14.60
2023-03-04T01:47:31.684Z,13.90
2023-03-04T01:50:01.150Z,14.40
2023-03-04T01:52:29.570Z,15.40
2023-03-04T01:54:57.959Z,14.70
2023-03-04T01:57:26.565Z,15.10
2023-03-04T02:00:27.987Z,16.80
2023-03-04T02:03:00.412Z,15.60
2023-03-04T02:05:28.493Z,16.50
2023-03-04T02:07:57.406Z,16.50
2023-03-04T02:10:26.077Z,18.00
2023-03-04T02:12:54.365Z,18.10
2023-03-04T02:15:23.321Z,16.60
2023-03-04T02:17:57.867Z,18.40
2023-03-04T02:20:35.829Z,17.80
2023-03-04T02:23:10.327Z,18.40
2023-03-04T02:25:50.531Z,17.70
2023-03-04T02:28:18.756Z,19.20
2023-03-04T02:30:47.005Z,19.60
2023-03-04T02:33:17.744Z,19.30
2023-03-04T02:35:47.105Z,19.90
2023-03-04T02:38:16.563Z,19.80
2023-03-04T02:40:49.135Z,19.30
2023-03-04T02:43:17.452Z,20.10
2023-03-04T02:45:50.023Z,19.00
2023-03-04T02:48:21.108Z,20.30
2023-03-04T02:50:50.679Z,20.40
2023-03-04T02:53:19.287Z,20.70
2023-03-04T02:55:48.141Z,19.40
2023-03-04T02:58:17.976Z,20.60
2023-03-04T03:00:46.084Z,21.40
2023-03-04T03:03:14.596Z,19.70
2023-03-04T03:05:43.646Z,21.40
2023-03-04T03:08:11.854Z,21.60
2023-03-04T03:10:40.472Z,21.10
2023-03-04T03:13:09.374Z,22.00
2023-03-04T03:15:42.536Z,19.50
2023-03-04T03:18:11.408Z,20.90
2023-03-04T03:20:39.676Z,21.70
2023-03-04T03:23:08.654Z,22.10
2023-03-04T03:25:40.331Z,22.60
2023-03-04T03:28:10.420Z,21.10
2023-03-04T03:30:39.541Z,20.80
2023-03-04T03:33:08.089Z,21.40
2023-03-04T03:35:38.440Z,20.50
2023-03-04T03:38:06.956Z,20.20
2023-03-04T03:40:37.070Z,21.00
2023-03-04T03:43:05.197Z,21.50
2023-03-04T03:45:33.381Z,22.20
2023-03-04T03:48:01.842Z,22.10
2023-03-04T03:50:30.105Z,22.70
2023-03-04T03:52:58.794Z,23.30
2023-03-04T03:55:27.186Z,21.30
2023-03-04T03:57:55.568Z,22.40
2023-03-04T04:00:24.055Z,22.20
2023-03-04T04:02:54.145Z,22.70
2023-03-04T04:05:22.625Z,22.90
2023-03-04T04:07:54.130Z,21.80
2023-03-04T04:10:22.525Z,21.40
2023-03-04T04:12:50.704Z,20.20
2023-03-04T04:15:18.877Z,23.10
2023-03-04T04:17:48.410Z,21.80
2023-03-04T04:20:16.697Z,21.30
2023-03-04T04:22:49.269Z,21.40
2023-03-04T04:25:18.000Z,21.60
2023-03-04T04:27:46.534Z,21.70
2023-03-04T04:30:15.831Z,19.10
2023-03-04T04:32:44.057Z,21.40
2023-03-04T04:35:12.305Z,20.40
2023-03-04T04:37:40.544Z,21.80
2023-03-04T04:40:10.266Z,20.80
2023-03-04T04:42:39.048Z,21.10
2023-03-04T04:45:08.161Z,20.90
2023-03-04T04:47:37.332Z,20.20
2023-03-04T04:50:08.293Z,20.60
2023-03-04T04:52:37.761Z,22.40
2023-03-04T04:55:06.476Z,23.20
2023-03-04T04:57:35.188Z,20.30
2023-03-04T05:00:05.345Z,22.60
2023-03-04T05:02:37.975Z,21.10
2023-03-04T05:05:07.082Z,20.30
2023-03-04T05:07:38.538Z,22.40
2023-03-04T05:10:07.406Z,20.80
2023-03-04T05:12:35.776Z,21.40
2023-03-04T05:15:04.824Z,20.20
2023-03-04T05:17:33.564Z,21.40
2023-03-04T05:20:03.575Z,21.60
2023-03-04T05:22:32.335Z,19.60
2023-03-04T05:25:02.526Z,20.00
2023-03-04T05:27:30.862Z,21.00
2023-03-04T05:30:02.281Z,18.40
2023-03-04T05:32:31.174Z,20.10
2023-03-04T05:34:59.303Z,19.20
2023-03-04T05:37:27.659Z,19.50
2023-03-04T05:39:56.380Z,17.40
2023-03-04T05:42:24.990Z,18.70
2023-03-04T05:44:53.196Z,18.10
2023-03-04T05:47:21.263Z,17.60
2023-03-04T05:49:51.097Z,19.00
2023-03-04T05:52:19.708Z,18.80
2023-03-04T05:54:47.766Z,18.10
2023-03-04T05:57:16.076Z,18.70
2023-03-04T05:59:44.548Z,17.60
2023-03-04T06:02:12.612Z,18.70
2023-03-04T06:04:41.449Z,18.20
2023-03-04T06:07:10.013Z,18.60
2023-03-04T06:09:39.653Z,19.10
2023-03-04T06:12:07.888Z,18.20
2023-03-04T06:14:42.488Z,17.60
2023-03-04T06:17:11.488Z,17.00
2023-03-04T06:19:39.609Z,19.50
2023-03-04T06:22:09.818Z,19.60
2023-03-04T06:24:38.203Z,17.70
2023-03-04T06:27:06.774Z,19.20
2023-03-04T06:29:35.037Z,19.10
2023-03-04T06:32:03.202Z,18.80
2023-03-04T06:34:34.064Z,18.80
2023-03-04T06:37:02.296Z,20.10
2023-03-04T06:39:35.102Z,19.50
2023-03-04T06:42:03.141Z,19.30
2023-03-04T06:44:31.490Z,19.40
2023-03-04T06:46:59.704Z,21.40
2023-03-04T06:49:27.990Z,21.30
2023-03-04T06:51:56.036Z,20.50
2023-03-04T06:54:24.393Z,21.10
2023-03-04T06:56:52.657Z,19.80
2023-03-04T06:59:20.856Z,19.90
2023-03-04T07:01:50.848Z,19.90
2023-03-04T07:04:18.936Z,19.90
2023-03-04T07:06:47.070Z,20.30
2023-03-04T07:09:15.304Z,19.80
2023-03-04T07:11:44.066Z,22.20
2023-03-04T07:14:12.144Z,20.90
2023-03-04T07:16:40.827Z,20.50
2023-03-04T07:19:09.264Z,19.00
2023-03-04T07:21:40.845Z,20.60
2023-03-04T07:24:09.190Z,20.70
2023-03-04T07:26:38.469Z,22.70
2023-03-04T07:29:06.520Z,21.90
2023-03-04T07:31:35.112Z,21.80
2023-03-04T07:34:05.209Z,23.00
2023-03-04T07:36:35.468Z,23.30
2023-03-04T07:39:04.635Z,22.60
2023-03-04T07:41:36.332Z,22.50
2023-03-04T07:44:05.847Z,23.30
2023-03-04T07:46:34.211Z,23.90
2023-03-04T07:49:02.275Z,24.30
2023-03-04T07:51:33.366Z,24.70
2023-03-04T07:54:01.791Z,22.10
2023-03-04T07:56:31.606Z,22.40
2023-03-04T07:59:00.336Z,25.50
2023-03-04T08:01:33.610Z,25.30
2023-03-04T08:04:02.550Z,24.10
2023-03-04T08:06:31.925Z,22.30
2023-03-04T08:09:04.112Z,26.10
2023-03-04T08:11:33.038Z,27.30
2023-03-04T08:14:01.693Z,23.70
2023-03-04T08:16:35.498Z,24.80
2023-03-04T08:19:04.358Z,25.50
2023-03-04T08:21:32.500Z,23.10
2023-03-04T08:24:02.708Z,24.30
2023-03-04T08:26:40.659Z,25.00
2023-03-04T08:29:12.878Z,27.00
2023-03-04T08:31:42.604Z,24.70
2023-03-04T08:34:11.680Z,24.90
2023-03-04T08:36:40.102Z,24.80
2023-03-04T08:39:08.518Z,22.70
2023-03-04T08:41:37.610Z,24.40
2023-03-04T08:44:05.969Z,23.50
2023-03-04T08:46:35.069Z,23.70
2023-03-04T08:49:03.868Z,23.80
2023-03-04T08:51:32.538Z,23.50
2023-03-04T08:54:01.289Z,23.00
2023-03-04T08:56:29.757Z,25.90
2023-03-04T08:58:58.995Z,24.00
2023-03-04T09:01:27.330Z,23.90
2023-03-04T09:03:55.721Z,25.00
2023-03-04T09:06:25.314Z,23.80
2023-03-04T09:08:53.952Z,24.80
2023-03-04T09:11:23.658Z,24.60
2023-03-04T09:13:53.658Z,23.20
2023-03-04T09:16:23.086Z,25.40
2023-03-04T09:18:51.690Z,23.00
2023-03-04T09:21:19.927Z,23.40
2023-03-04T09:23:48.348Z,23.60
2023-03-04T09:26:24.926Z,22.20
2023-03-04T09:29:04.133Z,23.50
2023-03-04T09:31:33.282Z,21.30
2023-03-04T09:34:04.256Z,22.30
2023-03-04T09:36:34.763Z,20.30
2023-03-04T09:39:10.370Z,20.10
2023-03-04T09:41:50.120Z,21.10
2023-03-04T09:44:31.009Z,21.90
2023-03-04T09:47:12.858Z,21.30
2023-03-04T09:49:45.706Z,21.50
2023-03-04T09:52:37.005Z,21.90
2023-03-04T09:55:22.357Z,19.60
2023-03-04T09:58:10.877Z,20.10
2023-03-04T10:01:05.438Z,20.10
2023-03-04T10:03:45.500Z,20.80
2023-03-04T10:06:21.120Z,20.60
2023-03-04T10:09:10.585Z,20.50
2023-03-04T10:12:03.107Z,20.70
2023-03-04T10:14:40.845Z,19.10
2023-03-04T10:17:24.477Z,18.70
2023-03-04T10:19:59.183Z,20.80
2023-03-04T10:22:46.511Z,18.80
2023-03-04T10:25:21.141Z,18.30
2023-03-04T10:28:18.284Z,17.40
2023-03-04T10:31:13.819Z,19.10
2023-03-04T10:33:55.112Z,16.20
2023-03-04T10:36:33.231Z,17.30
2023-03-04T10:39:39.400Z,16.00
2023-03-04T10:42:14.316Z,16.60
2023-03-04T10:47:28.446Z,15.50
2023-03-04T10:50:06.931Z,15.90
2023-03-04T10:52:50.087Z,16.00
2023-03-04T10:55:21.394Z,17.80
2023-03-04T10:57:56.275Z,18.00
2023-03-04T11:00:36.934Z,16.10
2023-03-04T11:03:29.675Z,18.00
2023-03-04T11:06:20.840Z,17.30
2023-03-04T11:08:54.649Z,17.90
2023-03-04T11:11:24.538Z,17.60
2023-03-04T11:13:57.754Z,18.40
2023-03-04T11:16:31.368Z,16.70
2023-03-04T11:19:11.492Z,16.70
2023-03-04T11:21:41.059Z,16.30
2023-03-04T11:24:27.660Z,17.80
2023-03-04T11:27:12.693Z,16.60
2023-03-04T11:29:51.515Z,15.40
2023-03-04T11:32:43.434Z,16.40
2023-03-04T11:35:23.552Z,16.40
2023-03-04T11:38:02.129Z,16.90
2023-03-04T11:40:39.093Z,17.70
2023-03-04T11:43:13.903Z,15.50
2023-03-04T11:46:08.104Z,17.80
2023-03-04T11:51:48.436Z,15.30
2023-03-04T11:54:25.564Z,15.90
2023-03-04T11:57:18.898Z,15.90
2023-03-04T11:59:55.938Z,15.60
2023-03-04T12:02:33.932Z,14.90
2023-03-04T12:05:28.219Z,16.40
2023-03-04T12:08:16.254Z,16.00
2023-03-04T12:11:02.257Z,18.90
2023-03-04T12:14:03.850Z,15.20
2023-03-04T12:16:53.177Z,18.40
2023-03-04T12:20:02.692Z,16.60
2023-03-04T12:22:41.610Z,18.20
2023-03-04T12:25:18.125Z,18.30
2023-03-04T12:27:53.257Z,16.20
2023-03-04T12:30:45.906Z,16.70
2023-03-04T12:33:33.391Z,18.00
2023-03-04T12:36:22.098Z,16.70
2023-03-04T12:38:53.906Z,16.90
2023-03-04T12:41:45.938Z,15.60
2023-03-04T12:44:19.475Z,17.20
2023-03-04T12:46:47.807Z,19.10
2023-03-04T12:49:27.153Z,15.70
2023-03-04T12:52:14.820Z,16.20
2023-03-04T12:54:49.178Z,15.30
2023-03-04T12:57:24.700Z,13.60
2023-03-04T13:00:00.937Z,14.80
2023-03-04T13:02:30.165Z,16.50
2023-03-04T13:05:03.795Z,16.20
2023-03-04T13:07:37.420Z,16.10
2023-03-04T13:10:15.049Z,17.10
2023-03-04T13:12:49.663Z,17.00
2023-03-04T13:15:25.956Z,15.30
2023-03-04T13:18:00.228Z,15.20
2023-03-04T13:20:30.781Z,16.40
2023-03-04T13:23:33.471Z,15.40
2023-03-04T13:26:01.956Z,15.30
2023-03-04T13:28:41.266Z,15.10
2023-03-04T13:31:09.567Z,16.10
2023-03-04T13:33:39.151Z,16.10
2023-03-04T13:39:15.740Z,16.90
2023-03-04T13:41:53.782Z,15.60
2023-03-04T13:44:53.326Z,14.80
2023-03-04T13:47:23.061Z,14.10
2023-03-04T13:49:51.505Z,14.70
2023-03-04T13:52:35.603Z,15.70
2023-03-04T13:55:40.386Z,15.60
2023-03-04T13:58:31.316Z,14.60
2023-03-04T14:01:03.474Z,15.30
2023-03-04T14:03:31.926Z,13.60
2023-03-04T14:06:23.251Z,16.40
2023-03-04T14:08:53.275Z,15.50
2023-03-04T14:11:38.782Z,15.20
2023-03-04T14:14:08.393Z,14.90
2023-03-04T14:16:40.283Z,14.30
2023-03-04T14:19:15.420Z,14.40
2023-03-04T14:24:19.858Z,12.50
2023-03-04T14:26:48.244Z,12.80
2023-03-04T14:29:26.240Z,11.10
2023-03-04T14:31:54.528Z,10.50
2023-03-04T14:34:33.389Z,11.50
2023-03-04T14:37:03.265Z,12.90
2023-03-04T14:39:33.270Z,11.30
2023-03-04T14:42:10.821Z,11.40
2023-03-04T14:44:45.150Z,10.70
2023-03-04T14:47:29.796Z,11.50
2023-03-04T14:49:57.960Z,10.90
2023-03-04T14:52:37.393Z,11.20
2023-03-04T14:55:15.236Z,11.10
2023-03-04T14:57:58.217Z,11.10
2023-03-04T15:00:30.532Z,10.40
2023-03-04T15:03:23.165Z,11.30
2023-03-04T15:05:53.063Z,10.80
2023-03-04T15:08:28.477Z,11.00
2023-03-04T15:10:59.925Z,10.90
2023-03-04T15:13:58.060Z,11.40
2023-03-04T15:16:28.664Z,9.80
2023-03-04T15:19:06.096Z,11.20
2023-03-04T15:21:37.993Z,9.60
2023-03-04T15:24:07.407Z,10.70
2023-03-04T15:26:40.348Z,11.00
2023-03-04T15:29:19.350Z,9.80
2023-03-04T15:31:50.758Z,11.40
2023-03-04T15:34:20.203Z,10.20
2023-03-04T15:36:50.810Z,11.00
2023-03-04T15:39:19.293Z,11.60
2023-03-04T15:41:48.586Z,10.30
2023-03-04T15:44:17.746Z,10.00
2023-03-04T15:46:46.631Z,10.00
2023-03-04T15:49:15.476Z,11.00
2023-03-04T15:51:44.595Z,9.70
2023-03-04T15:54:13.997Z,9.90
2023-03-04T15:56:42.113Z,10.10
2023-03-04T15:59:12.381Z,10.70
2023-03-04T16:01:40.906Z,10.50
2023-03-04T16:04:15.637Z,11.30
2023-03-04T16:06:44.804Z,10.70
2023-03-04T16:09:17.171Z,10.40
2023-03-04T16:11:47.931Z,10.30
2023-03-04T16:14:16.613Z,9.70
2023-03-04T16:16:46.649Z,10.00
2023-03-04T16:19:14.746Z,9.80
2023-03-04T16:21:43.202Z,10.80
2023-03-04T16:24:18.502Z,10.20
2023-03-04T16:26:46.641Z,10.90
2023-03-04T16:29:16.028Z,10.50
2023-03-04T16:31:44.292Z,10.80
2023-03-04T16:34:12.682Z,10.40
2023-03-04T16:36:41.282Z,11.70
2023-03-04T16:39:16.602Z,11.20
2023-03-04T16:41:45.075Z,10.90
2023-03-04T16:44:14.909Z,11.20
2023-03-04T16:46:43.856Z,10.10
2023-03-04T16:49:12.383Z,10.40
2023-03-04T16:51:43.942Z,11.00
2023-03-04T16:54:17.958Z,10.50
2023-03-04T16:56:46.001Z,7.40
2023-03-04T16:59:16.203Z,11.70
2023-03-04T17:01:47.085Z,10.90
2023-03-04T17:04:17.153Z,10.60
2023-03-04T17:06:46.004Z,10.40
2023-03-04T17:09:14.464Z,11.00
2023-03-04T17:11:43.960Z,9.80
2023-03-04T17:14:13.914Z,10.50
2023-03-04T17:16:42.257Z,10.90
2023-03-04T17:19:12.399Z,11.70
2023-03-04T17:21:41.223Z,10.10
2023-03-04T17:24:11.391Z,10.10
2023-03-04T17:26:42.712Z,11.10
2023-03-04T17:29:11.070Z,9.60
2023-03-04T17:31:39.323Z,11.60
2023-03-04T17:34:08.092Z,10.70
2023-03-04T17:36:40.375Z,9.50
2023-03-04T17:39:09.283Z,11.10
2023-03-04T17:41:37.891Z,10.70
2023-03-04T17:44:06.239Z,9.90
2023-03-04T17:46:35.451Z,10.30
2023-03-04T17:49:03.556Z,10.10
2023-03-04T17:51:33.708Z,10.50
2023-03-04T17:54:02.897Z,10.90
2023-03-04T17:56:33.219Z,11.20
2023-03-04T17:59:02.598Z,11.80
2023-03-04T18:01:30.751Z,10.50
2023-03-04T18:03:58.798Z,10.30
2023-03-04T18:06:27.223Z,10.30
2023-03-04T18:08:58.817Z,10.40
2023-03-04T18:11:27.196Z,10.00
2023-03-04T18:13:56.653Z,9.60
2023-03-04T18:16:27.339Z,9.90
2023-03-04T18:18:59.366Z,10.40
2023-03-04T18:21:28.355Z,11.10
2023-03-04T18:23:57.589Z,10.80
2023-03-04T18:26:26.020Z,9.30
2023-03-04T18:28:55.134Z,10.30
2023-03-04T18:31:25.833Z,9.80
2023-03-04T18:34:02.300Z,10.80
2023-03-04T18:36:31.160Z,10.70
2023-03-04T18:38:59.647Z,10.40
2023-03-04T18:41:29.249Z,10.80
2023-03-04T18:43:57.315Z,10.90
2023-03-04T18:46:43.654Z,11.00
2023-03-04T18:49:12.010Z,11.10
2023-03-04T18:51:40.751Z,9.70
2023-03-04T18:54:09.974Z,10.50
2023-03-04T18:56:45.611Z,10.10
2023-03-04T18:59:15.538Z,11.00
2023-03-04T19:01:43.786Z,11.30
2023-03-04T19:04:12.841Z,9.80
2023-03-04T19:06:41.284Z,10.40
2023-03-04T19:09:09.682Z,11.30
2023-03-04T19:11:38.688Z,10.60
2023-03-04T19:14:07.837Z,11.90
2023-03-04T19:16:38.932Z,12.10
2023-03-04T19:19:07.200Z,11.20
2023-03-04T19:21:38.358Z,10.50
2023-03-04T19:24:07.020Z,11.30
2023-03-04T19:26:35.434Z,11.40
2023-03-04T19:29:05.226Z,11.60
2023-03-04T19:31:34.577Z,11.20
2023-03-04T19:34:04.484Z,12.90
2023-03-04T19:36:33.458Z,11.20
2023-03-04T19:39:01.979Z,12.20
2023-03-04T19:41:30.404Z,13.20
2023-03-04T19:44:01.556Z,12.30
2023-03-04T19:46:33.089Z,11.90
2023-03-04T19:49:02.417Z,11.60
2023-03-04T19:51:32.868Z,11.10
2023-03-04T19:54:04.635Z,11.40
2023-03-04T19:56:36.608Z,10.80
2023-03-04T19:59:05.071Z,13.10
2023-03-04T20:01:36.454Z,12.50
2023-03-04T20:06:56.198Z,12.30
2023-03-04T20:09:28.666Z,13.40
2023-03-04T20:11:59.020Z,12.40
2023-03-04T20:14:28.065Z,12.70
2023-03-04T20:17:01.663Z,13.20
2023-03-04T20:19:30.490Z,13.80
2023-03-04T20:21:58.908Z,13.00
2023-03-04T20:24:27.620Z,12.10
2023-03-04T20:26:56.124Z,12.70
2023-03-04T20:29:24.331Z,12.90
2023-03-04T20:31:52.780Z,13.10
2023-03-04T20:34:21.313Z,12.20
2023-03-04T20:36:49.566Z,12.40
2023-03-04T20:39:28.604Z,13.50
2023-03-04T20:41:58.306Z,12.10
2023-03-04T20:44:26.688Z,13.10
2023-03-04T20:46:55.137Z,9.50
2023-03-04T20:49:25.257Z,8.20
2023-03-04T20:51:56.138Z,5.90
2023-03-04T20:54:24.359Z,5.60
2023-03-04T20:56:53.082Z,6.30
2023-03-04T20:59:21.344Z,5.10
2023-03-04T21:01:49.480Z,5.00
2023-03-04T21:04:18.413Z,4.70
2023-03-04T21:06:47.699Z,4.00
2023-03-04T21:09:18.967Z,3.30
2023-03-04T21:11:47.316Z,2.30
2023-03-04T21:14:23.739Z,2.00
2023-03-04T21:17:00.926Z,1.60
2023-03-04T21:19:35.799Z,1.90
2023-03-04T21:22:08.218Z,1.70
2023-03-04T21:24:39.652Z,1.90
2023-03-04T21:27:08.607Z,1.30
2023-03-04T21:29:39.791Z,1.30
2023-03-04T21:32:23.190Z,1.20
2023-03-04T21:34:53.063Z,1.10
2023-03-04T21:37:22.029Z,0.90
2023-03-04T21:39:50.076Z,1.10
2023-03-04T21:42:19.564Z,1.00
2023-03-04T21:44:50.359Z,0.60
2023-03-04T21:47:20.633Z,0.70
2023-03-04T21:49:48.863Z,0.70
2023-03-04T21:52:20.226Z,0.50
2023-03-04T21:54:49.708Z,0.60
2023-03-04T21:57:19.602Z,0.70
2023-03-04T21:59:48.487Z,0.40
2023-03-04T22:02:18.316Z,0.60
2023-03-04T22:04:48.430Z,0.80
2023-03-04T22:07:16.918Z,0.50
2023-03-04T22:09:47.385Z,0.70
2023-03-04T22:12:17.662Z,0.50
2023-03-04T22:14:47.236Z,0.60
2023-03-04T22:17:15.591Z,0.60
2023-03-04T22:19:44.286Z,0.70
2023-03-04T22:22:13.036Z,0.50
2023-03-04T22:24:42.680Z,0.80
2023-03-04T22:27:11.408Z,0.60
2023-03-04T22:29:41.573Z,0.80
2023-03-04T22:32:10.446Z,0.60
2023-03-04T22:34:39.227Z,0.70
2023-03-04T22:37:07.570Z,0.70
2023-03-04T22:39:35.567Z,0.60
2023-03-04T22:42:03.881Z,1.00
2023-03-04T22:44:31.982Z,0.80
2023-03-04T22:47:01.452Z,1.40
2023-03-04T22:49:29.969Z,1.70
2023-03-04T22:52:00.669Z,1.00
2023-03-04T22:54:29.755Z,2.20
2023-03-04T22:56:58.048Z,3.50
2023-03-04T22:59:26.260Z,1.40
2023-03-04T23:01:57.560Z,1.10
2023-03-04T23:04:26.722Z,0.90
2023-03-04T23:06:54.881Z,0.80
2023-03-04T23:09:23.716Z,1.20
2023-03-04T23:11:52.168Z,0.70
2023-03-04T23:14:21.020Z,0.50
2023-03-04T23:16:50.114Z,0.80
2023-03-04T23:19:18.632Z,0.70
2023-03-04T23:21:52.079Z,0.60
2023-03-04T23:24:20.512Z,0.80
2023-03-04T23:26:49.068Z,0.50
2023-03-04T23:29:17.199Z,0.90
2023-03-04T23:31:45.335Z,0.80
2023-03-04T23:34:16.658Z,1.00
2023-03-04T23:36:44.796Z,0.80
2023-03-04T23:39:13.145Z,1.60
2023-03-04T23:41:41.710Z,1.50
2023-03-04T23:44:11.220Z,1.30
2023-03-04T23:46:43.007Z,1.40
2023-03-04T23:49:12.831Z,1.70
2023-03-04T23:51:41.233Z,1.50
2023-03-04T23:54:09.591Z,1.40
2023-03-04T23:56:37.714Z,2.40
2023-03-04T23:59:07.791Z,2.10
